sensor_id;sensor_type;location;lat;lon;timestamp;temperature;humidity
3942;DHT22;1985;48.592;8.850;2023-09-07T00:00:01;19.20;93.10
3942;DHT22;1985;48.592;8.850;2023-09-07T00:02:30;19.20;93.30
3942;DHT22;1985;48.592;8.850;2023-09-07T00:04:56;19.10;93.20
3942;DHT22;1985;48.592;8.850;2023-09-07T00:07:21;19.10;93.10
3942;DHT22;1985;48.592;8.850;2023-09-07T00:09:47;19.10;93.50
3942;DHT22;1985;48.592;8.850;2023-09-07T00:12:12;19.00;93.60
3942;DHT22;1985;48.592;8.850;2023-09-07T00:14:38;19.00;93.40
3942;DHT22;1985;48.592;8.850;2023-09-07T00:17:03;19.00;94.00
3942;DHT22;1985;48.592;8.850;2023-09-07T00:19:30;18.90;93.80
3942;DHT22;1985;48.592;8.850;2023-09-07T00:21:57;18.90;93.90
3942;DHT22;1985;48.592;8.850;2023-09-07T00:24:23;18.90;94.20
3942;DHT22;1985;48.592;8.850;2023-09-07T00:26:49;18.90;94.60
3942;DHT22;1985;48.592;8.850;2023-09-07T00:29:14;18.80;95.10
3942;DHT22;1985;48.592;8.850;2023-09-07T00:31:40;18.80;95.10
3942;DHT22;1985;48.592;8.850;2023-09-07T00:34:06;18.80;95.30
3942;DHT22;1985;48.592;8.850;2023-09-07T00:36:32;18.80;95.20
3942;DHT22;1985;48.592;8.850;2023-09-07T00:38:58;18.80;94.80
3942;DHT22;1985;48.592;8.850;2023-09-07T00:41:23;18.80;94.60
3942;DHT22;1985;48.592;8.850;2023-09-07T00:43:49;18.80;94.60
3942;DHT22;1985;48.592;8.850;2023-09-07T00:46:15;18.80;94.70
3942;DHT22;1985;48.592;8.850;2023-09-07T00:48:41;18.80;94.60
3942;DHT22;1985;48.592;8.850;2023-09-07T00:51:07;18.80;94.70
3942;DHT22;1985;48.592;8.850;2023-09-07T00:53:32;18.80;94.60
3942;DHT22;1985;48.592;8.850;2023-09-07T00:55:58;18.80;94.90
3942;DHT22;1985;48.592;8.850;2023-09-07T00:58:24;18.70;95.00
3942;DHT22;1985;48.592;8.850;2023-09-07T01:00:50;18.70;95.30
3942;DHT22;1985;48.592;8.850;2023-09-07T01:03:16;18.60;96.30
3942;DHT22;1985;48.592;8.850;2023-09-07T01:05:56;18.50;95.90
3942;DHT22;1985;48.592;8.850;2023-09-07T01:08:25;18.60;95.80
3942;DHT22;1985;48.592;8.850;2023-09-07T01:10:51;18.60;95.70
3942;DHT22;1985;48.592;8.850;2023-09-07T01:13:18;18.40;97.00
3942;DHT22;1985;48.592;8.850;2023-09-07T01:15:44;18.40;96.60
3942;DHT22;1985;48.592;8.850;2023-09-07T01:18:10;18.40;96.20
3942;DHT22;1985;48.592;8.850;2023-09-07T01:20:36;18.40;96.40
3942;DHT22;1985;48.592;8.850;2023-09-07T01:23:04;18.40;96.20
3942;DHT22;1985;48.592;8.850;2023-09-07T01:25:30;18.40;96.40
3942;DHT22;1985;48.592;8.850;2023-09-07T01:27:57;18.30;96.40
3942;DHT22;1985;48.592;8.850;2023-09-07T01:30:24;18.20;97.10
3942;DHT22;1985;48.592;8.850;2023-09-07T01:32:51;18.20;96.90
3942;DHT22;1985;48.592;8.850;2023-09-07T01:35:18;18.20;97.40
3942;DHT22;1985;48.592;8.850;2023-09-07T01:37:47;18.10;97.90
3942;DHT22;1985;48.592;8.850;2023-09-07T01:40:13;18.10;97.30
3942;DHT22;1985;48.592;8.850;2023-09-07T01:42:38;18.00;99.20
3942;DHT22;1985;48.592;8.850;2023-09-07T01:45:05;17.90;98.60
3942;DHT22;1985;48.592;8.850;2023-09-07T01:47:31;18.00;98.70
3942;DHT22;1985;48.592;8.850;2023-09-07T01:49:56;18.00;99.40
3942;DHT22;1985;48.592;8.850;2023-09-07T01:52:22;17.90;99.80
3942;DHT22;1985;48.592;8.850;2023-09-07T01:54:47;17.90;99.90
3942;DHT22;1985;48.592;8.850;2023-09-07T01:57:13;17.70;99.90
3942;DHT22;1985;48.592;8.850;2023-09-07T01:59:38;17.60;99.90
3942;DHT22;1985;48.592;8.850;2023-09-07T02:02:05;17.70;99.90
3942;DHT22;1985;48.592;8.850;2023-09-07T02:04:30;17.80;99.90
3942;DHT22;1985;48.592;8.850;2023-09-07T02:06:56;17.90;99.90
3942;DHT22;1985;48.592;8.850;2023-09-07T02:09:21;17.90;99.90
3942;DHT22;1985;48.592;8.850;2023-09-07T02:11:47;17.90;99.90
3942;DHT22;1985;48.592;8.850;2023-09-07T02:14:12;17.90;99.90
3942;DHT22;1985;48.592;8.850;2023-09-07T02:16:38;17.70;99.90
3942;DHT22;1985;48.592;8.850;2023-09-07T02:19:05;17.60;99.90
3942;DHT22;1985;48.592;8.850;2023-09-07T02:21:32;17.60;99.90
3942;DHT22;1985;48.592;8.850;2023-09-07T02:23:57;17.50;99.90
3942;DHT22;1985;48.592;8.850;2023-09-07T02:26:23;17.60;99.90
3942;DHT22;1985;48.592;8.850;2023-09-07T02:28:49;17.60;99.90
3942;DHT22;1985;48.592;8.850;2023-09-07T02:31:14;17.60;99.90
3942;DHT22;1985;48.592;8.850;2023-09-07T02:33:40;17.60;99.90
3942;DHT22;1985;48.592;8.850;2023-09-07T02:36:06;17.60;99.90
3942;DHT22;1985;48.592;8.850;2023-09-07T02:38:31;17.60;99.90
3942;DHT22;1985;48.592;8.850;2023-09-07T02:40:57;17.60;99.90
3942;DHT22;1985;48.592;8.850;2023-09-07T02:43:23;17.70;99.90
3942;DHT22;1985;48.592;8.850;2023-09-07T02:45:49;17.60;99.90
3942;DHT22;1985;48.592;8.850;2023-09-07T02:48:15;17.50;99.90
3942;DHT22;1985;48.592;8.850;2023-09-07T02:50:41;17.30;99.90
3942;DHT22;1985;48.592;8.850;2023-09-07T02:53:08;17.20;99.90
3942;DHT22;1985;48.592;8.850;2023-09-07T02:55:33;17.20;99.90
3942;DHT22;1985;48.592;8.850;2023-09-07T02:58:03;17.30;99.90
3942;DHT22;1985;48.592;8.850;2023-09-07T03:00:29;17.30;99.90
3942;DHT22;1985;48.592;8.850;2023-09-07T03:02:54;17.20;99.90
3942;DHT22;1985;48.592;8.850;2023-09-07T03:05:20;17.20;99.90
3942;DHT22;1985;48.592;8.850;2023-09-07T03:07:46;17.20;99.90
3942;DHT22;1985;48.592;8.850;2023-09-07T03:10:15;17.10;99.90
3942;DHT22;1985;48.592;8.850;2023-09-07T03:12:40;17.10;99.90
3942;DHT22;1985;48.592;8.850;2023-09-07T03:15:06;17.00;99.90
3942;DHT22;1985;48.592;8.850;2023-09-07T03:17:32;17.00;99.90
3942;DHT22;1985;48.592;8.850;2023-09-07T03:19:59;16.90;99.90
3942;DHT22;1985;48.592;8.850;2023-09-07T03:22:24;16.90;99.90
3942;DHT22;1985;48.592;8.850;2023-09-07T03:24:51;16.90;99.90
3942;DHT22;1985;48.592;8.850;2023-09-07T03:27:17;16.90;99.90
3942;DHT22;1985;48.592;8.850;2023-09-07T03:29:44;16.90;99.90
3942;DHT22;1985;48.592;8.850;2023-09-07T03:32:09;16.90;99.90
3942;DHT22;1985;48.592;8.850;2023-09-07T03:34:35;16.90;99.90
3942;DHT22;1985;48.592;8.850;2023-09-07T03:37:00;16.80;99.90
3942;DHT22;1985;48.592;8.850;2023-09-07T03:39:26;16.80;99.90
3942;DHT22;1985;48.592;8.850;2023-09-07T03:41:52;16.60;99.90
3942;DHT22;1985;48.592;8.850;2023-09-07T03:44:18;16.50;99.90
3942;DHT22;1985;48.592;8.850;2023-09-07T03:46:43;16.60;99.90
3942;DHT22;1985;48.592;8.850;2023-09-07T03:49:09;16.50;99.90
3942;DHT22;1985;48.592;8.850;2023-09-07T03:51:34;16.50;99.90
3942;DHT22;1985;48.592;8.850;2023-09-07T03:54:00;16.50;99.90
3942;DHT22;1985;48.592;8.850;2023-09-07T03:56:26;16.50;99.90
3942;DHT22;1985;48.592;8.850;2023-09-07T03:58:52;16.60;99.90
3942;DHT22;1985;48.592;8.850;2023-09-07T04:01:17;16.50;99.90
3942;DHT22;1985;48.592;8.850;2023-09-07T04:03:43;16.60;99.90
3942;DHT22;1985;48.592;8.850;2023-09-07T04:06:08;16.60;99.90
3942;DHT22;1985;48.592;8.850;2023-09-07T04:08:34;16.60;99.90
3942;DHT22;1985;48.592;8.850;2023-09-07T04:11:04;16.60;99.90
3942;DHT22;1985;48.592;8.850;2023-09-07T04:13:31;16.40;99.90
3942;DHT22;1985;48.592;8.850;2023-09-07T04:15:56;16.40;99.90
3942;DHT22;1985;48.592;8.850;2023-09-07T04:18:22;16.40;99.90
3942;DHT22;1985;48.592;8.850;2023-09-07T04:20:47;16.30;99.90
3942;DHT22;1985;48.592;8.850;2023-09-07T04:23:13;16.30;99.90
3942;DHT22;1985;48.592;8.850;2023-09-07T04:25:39;16.30;99.90
3942;DHT22;1985;48.592;8.850;2023-09-07T04:28:05;16.20;99.90
3942;DHT22;1985;48.592;8.850;2023-09-07T04:30:31;16.10;99.90
3942;DHT22;1985;48.592;8.850;2023-09-07T04:32:57;16.10;99.90
3942;DHT22;1985;48.592;8.850;2023-09-07T04:35:29;16.10;99.90
3942;DHT22;1985;48.592;8.850;2023-09-07T04:37:58;16.10;99.90
3942;DHT22;1985;48.592;8.850;2023-09-07T04:40:24;16.10;99.90
3942;DHT22;1985;48.592;8.850;2023-09-07T04:42:49;16.10;99.90
3942;DHT22;1985;48.592;8.850;2023-09-07T04:45:15;16.10;99.90
3942;DHT22;1985;48.592;8.850;2023-09-07T04:47:41;16.10;99.90
3942;DHT22;1985;48.592;8.850;2023-09-07T04:50:06;16.00;99.90
3942;DHT22;1985;48.592;8.850;2023-09-07T04:52:32;15.90;99.90
3942;DHT22;1985;48.592;8.850;2023-09-07T04:55:00;15.90;99.90
3942;DHT22;1985;48.592;8.850;2023-09-07T04:57:26;15.80;99.90
3942;DHT22;1985;48.592;8.850;2023-09-07T04:59:51;15.70;99.90
3942;DHT22;1985;48.592;8.850;2023-09-07T05:02:17;15.80;99.90
3942;DHT22;1985;48.592;8.850;2023-09-07T05:04:42;15.70;99.90
3942;DHT22;1985;48.592;8.850;2023-09-07T05:07:08;15.70;99.90
3942;DHT22;1985;48.592;8.850;2023-09-07T05:09:34;15.70;99.90
3942;DHT22;1985;48.592;8.850;2023-09-07T05:11:59;15.70;99.90
3942;DHT22;1985;48.592;8.850;2023-09-07T05:14:25;15.80;99.90
3942;DHT22;1985;48.592;8.850;2023-09-07T05:16:51;15.90;99.90
3942;DHT22;1985;48.592;8.850;2023-09-07T05:19:17;16.00;99.90
3942;DHT22;1985;48.592;8.850;2023-09-07T05:21:42;16.10;99.90
3942;DHT22;1985;48.592;8.850;2023-09-07T05:24:08;16.20;99.90
3942;DHT22;1985;48.592;8.850;2023-09-07T05:26:34;16.20;99.90
3942;DHT22;1985;48.592;8.850;2023-09-07T05:28:59;16.20;99.90
3942;DHT22;1985;48.592;8.850;2023-09-07T05:31:26;16.20;99.90
3942;DHT22;1985;48.592;8.850;2023-09-07T05:33:52;16.20;99.90
3942;DHT22;1985;48.592;8.850;2023-09-07T05:36:18;16.30;99.90
3942;DHT22;1985;48.592;8.850;2023-09-07T05:38:43;16.30;99.90
3942;DHT22;1985;48.592;8.850;2023-09-07T05:41:09;16.20;99.90
3942;DHT22;1985;48.592;8.850;2023-09-07T05:43:35;16.20;99.90
3942;DHT22;1985;48.592;8.850;2023-09-07T05:46:01;16.40;99.90
3942;DHT22;1985;48.592;8.850;2023-09-07T05:48:26;16.40;99.90
3942;DHT22;1985;48.592;8.850;2023-09-07T05:50:52;16.30;99.90
3942;DHT22;1985;48.592;8.850;2023-09-07T05:53:21;16.30;99.90
3942;DHT22;1985;48.592;8.850;2023-09-07T05:55:47;16.30;99.90
3942;DHT22;1985;48.592;8.850;2023-09-07T05:58:13;16.20;99.90
3942;DHT22;1985;48.592;8.850;2023-09-07T06:00:38;16.20;99.90
3942;DHT22;1985;48.592;8.850;2023-09-07T06:03:05;16.30;99.90
3942;DHT22;1985;48.592;8.850;2023-09-07T06:05:33;16.40;99.90
3942;DHT22;1985;48.592;8.850;2023-09-07T06:07:58;16.50;99.90
3942;DHT22;1985;48.592;8.850;2023-09-07T06:10:24;16.50;99.90
3942;DHT22;1985;48.592;8.850;2023-09-07T06:12:50;16.60;99.90
3942;DHT22;1985;48.592;8.850;2023-09-07T06:15:16;16.60;99.90
3942;DHT22;1985;48.592;8.850;2023-09-07T06:17:42;16.60;99.90
3942;DHT22;1985;48.592;8.850;2023-09-07T06:20:08;16.60;99.90
3942;DHT22;1985;48.592;8.850;2023-09-07T06:22:34;16.70;99.90
3942;DHT22;1985;48.592;8.850;2023-09-07T06:24:59;16.70;99.90
3942;DHT22;1985;48.592;8.850;2023-09-07T06:27:25;16.80;99.90
3942;DHT22;1985;48.592;8.850;2023-09-07T06:29:51;17.00;99.90
3942;DHT22;1985;48.592;8.850;2023-09-07T06:32:16;16.90;99.90
3942;DHT22;1985;48.592;8.850;2023-09-07T06:34:42;16.70;99.90
3942;DHT22;1985;48.592;8.850;2023-09-07T06:37:08;16.50;99.90
3942;DHT22;1985;48.592;8.850;2023-09-07T06:39:33;16.50;99.90
3942;DHT22;1985;48.592;8.850;2023-09-07T06:41:59;16.50;99.90
3942;DHT22;1985;48.592;8.850;2023-09-07T06:44:25;16.50;99.90
3942;DHT22;1985;48.592;8.850;2023-09-07T06:46:50;16.70;99.90
3942;DHT22;1985;48.592;8.850;2023-09-07T06:49:16;16.70;99.90
3942;DHT22;1985;48.592;8.850;2023-09-07T06:51:41;16.80;99.90
3942;DHT22;1985;48.592;8.850;2023-09-07T06:54:07;16.90;99.90
3942;DHT22;1985;48.592;8.850;2023-09-07T06:56:32;16.80;99.90
3942;DHT22;1985;48.592;8.850;2023-09-07T06:59:00;16.80;99.90
3942;DHT22;1985;48.592;8.850;2023-09-07T07:01:26;16.90;99.90
3942;DHT22;1985;48.592;8.850;2023-09-07T07:03:51;16.90;99.90
3942;DHT22;1985;48.592;8.850;2023-09-07T07:06:18;17.10;99.90
3942;DHT22;1985;48.592;8.850;2023-09-07T07:08:44;17.20;99.90
3942;DHT22;1985;48.592;8.850;2023-09-07T07:11:09;17.40;99.90
3942;DHT22;1985;48.592;8.850;2023-09-07T07:13:35;17.60;99.90
3942;DHT22;1985;48.592;8.850;2023-09-07T07:16:02;17.70;99.90
3942;DHT22;1985;48.592;8.850;2023-09-07T07:18:29;17.90;99.90
3942;DHT22;1985;48.592;8.850;2023-09-07T07:20:54;18.00;99.90
3942;DHT22;1985;48.592;8.850;2023-09-07T07:23:20;18.20;99.90
3942;DHT22;1985;48.592;8.850;2023-09-07T07:25:46;18.30;99.90
3942;DHT22;1985;48.592;8.850;2023-09-07T07:28:11;18.40;99.90
3942;DHT22;1985;48.592;8.850;2023-09-07T07:30:38;18.30;99.90
3942;DHT22;1985;48.592;8.850;2023-09-07T07:33:06;18.40;99.90
3942;DHT22;1985;48.592;8.850;2023-09-07T07:35:35;18.50;99.90
3942;DHT22;1985;48.592;8.850;2023-09-07T07:38:01;18.60;99.90
3942;DHT22;1985;48.592;8.850;2023-09-07T07:40:29;18.80;99.90
3942;DHT22;1985;48.592;8.850;2023-09-07T07:42:55;19.00;99.90
3942;DHT22;1985;48.592;8.850;2023-09-07T07:45:20;19.20;99.90
3942;DHT22;1985;48.592;8.850;2023-09-07T07:47:50;19.40;99.90
3942;DHT22;1985;48.592;8.850;2023-09-07T07:50:17;19.50;99.90
3942;DHT22;1985;48.592;8.850;2023-09-07T07:52:42;19.60;99.90
3942;DHT22;1985;48.592;8.850;2023-09-07T07:55:09;19.80;99.90
3942;DHT22;1985;48.592;8.850;2023-09-07T07:57:34;20.00;99.90
3942;DHT22;1985;48.592;8.850;2023-09-07T08:00:00;20.10;99.90
3942;DHT22;1985;48.592;8.850;2023-09-07T08:02:27;20.30;99.90
3942;DHT22;1985;48.592;8.850;2023-09-07T08:04:53;20.30;99.90
3942;DHT22;1985;48.592;8.850;2023-09-07T08:07:19;20.40;99.90
3942;DHT22;1985;48.592;8.850;2023-09-07T08:09:45;20.40;99.90
3942;DHT22;1985;48.592;8.850;2023-09-07T08:12:10;20.50;99.90
3942;DHT22;1985;48.592;8.850;2023-09-07T08:14:36;20.70;99.90
3942;DHT22;1985;48.592;8.850;2023-09-07T08:17:02;20.60;99.90
3942;DHT22;1985;48.592;8.850;2023-09-07T08:19:27;20.60;99.90
3942;DHT22;1985;48.592;8.850;2023-09-07T08:21:53;20.80;99.90
3942;DHT22;1985;48.592;8.850;2023-09-07T08:24:19;20.80;99.90
3942;DHT22;1985;48.592;8.850;2023-09-07T08:26:44;20.80;99.90
3942;DHT22;1985;48.592;8.850;2023-09-07T08:29:10;20.70;99.90
3942;DHT22;1985;48.592;8.850;2023-09-07T08:31:37;20.70;99.90
3942;DHT22;1985;48.592;8.850;2023-09-07T08:34:06;20.90;99.90
3942;DHT22;1985;48.592;8.850;2023-09-07T08:36:32;21.10;99.90
3942;DHT22;1985;48.592;8.850;2023-09-07T08:39:03;21.10;99.90
3942;DHT22;1985;48.592;8.850;2023-09-07T08:41:36;21.30;99.90
3942;DHT22;1985;48.592;8.850;2023-09-07T08:44:10;21.50;99.90
3942;DHT22;1985;48.592;8.850;2023-09-07T08:46:37;21.70;99.90
3942;DHT22;1985;48.592;8.850;2023-09-07T08:49:03;21.80;99.90
3942;DHT22;1985;48.592;8.850;2023-09-07T08:51:30;21.90;99.90
3942;DHT22;1985;48.592;8.850;2023-09-07T08:54:00;21.90;99.90
3942;DHT22;1985;48.592;8.850;2023-09-07T08:56:26;21.90;99.90
3942;DHT22;1985;48.592;8.850;2023-09-07T08:58:52;22.00;99.90
3942;DHT22;1985;48.592;8.850;2023-09-07T09:01:18;22.20;99.90
3942;DHT22;1985;48.592;8.850;2023-09-07T09:03:44;22.30;99.90
3942;DHT22;1985;48.592;8.850;2023-09-07T09:06:11;22.30;99.90
3942;DHT22;1985;48.592;8.850;2023-09-07T09:08:51;22.40;99.90
3942;DHT22;1985;48.592;8.850;2023-09-07T09:11:21;22.60;99.90
3942;DHT22;1985;48.592;8.850;2023-09-07T09:13:48;22.70;99.90
3942;DHT22;1985;48.592;8.850;2023-09-07T09:16:14;22.80;99.90
3942;DHT22;1985;48.592;8.850;2023-09-07T09:21:27;22.90;99.90
3942;DHT22;1985;48.592;8.850;2023-09-07T09:23:54;22.90;99.90
3942;DHT22;1985;48.592;8.850;2023-09-07T09:26:23;22.90;99.90
3942;DHT22;1985;48.592;8.850;2023-09-07T09:28:49;23.00;99.90
3942;DHT22;1985;48.592;8.850;2023-09-07T09:31:18;23.00;99.90
3942;DHT22;1985;48.592;8.850;2023-09-07T09:33:48;23.20;99.90
3942;DHT22;1985;48.592;8.850;2023-09-07T09:36:14;23.10;99.90
3942;DHT22;1985;48.592;8.850;2023-09-07T09:38:39;23.20;99.90
3942;DHT22;1985;48.592;8.850;2023-09-07T09:41:05;23.30;99.90
3942;DHT22;1985;48.592;8.850;2023-09-07T09:43:31;23.30;99.90
3942;DHT22;1985;48.592;8.850;2023-09-07T09:45:57;23.40;99.90
3942;DHT22;1985;48.592;8.850;2023-09-07T09:48:27;23.50;99.90
3942;DHT22;1985;48.592;8.850;2023-09-07T09:50:53;23.80;99.90
3942;DHT22;1985;48.592;8.850;2023-09-07T09:53:19;23.90;99.90
3942;DHT22;1985;48.592;8.850;2023-09-07T09:55:49;24.00;99.90
3942;DHT22;1985;48.592;8.850;2023-09-07T09:58:16;24.10;99.90
3942;DHT22;1985;48.592;8.850;2023-09-07T10:00:48;24.30;99.90
3942;DHT22;1985;48.592;8.850;2023-09-07T10:05:52;24.70;98.50
3942;DHT22;1985;48.592;8.850;2023-09-07T10:08:19;24.70;99.60
3942;DHT22;1985;48.592;8.850;2023-09-07T10:10:49;24.80;98.40
3942;DHT22;1985;48.592;8.850;2023-09-07T10:13:29;24.90;98.30
3942;DHT22;1985;48.592;8.850;2023-09-07T10:16:06;25.30;96.70
3942;DHT22;1985;48.592;8.850;2023-09-07T10:18:37;26.00;96.60
3942;DHT22;1985;48.592;8.850;2023-09-07T10:21:03;26.20;95.70
3942;DHT22;1985;48.592;8.850;2023-09-07T10:26:03;28.40;91.40
3942;DHT22;1985;48.592;8.850;2023-09-07T10:28:30;29.20;90.10
3942;DHT22;1985;48.592;8.850;2023-09-07T10:31:05;29.60;85.70
3942;DHT22;1985;48.592;8.850;2023-09-07T10:33:35;30.30;84.40
3942;DHT22;1985;48.592;8.850;2023-09-07T10:36:04;30.80;76.50
3942;DHT22;1985;48.592;8.850;2023-09-07T10:38:35;31.70;75.10
3942;DHT22;1985;48.592;8.850;2023-09-07T10:41:03;33.40;70.70
3942;DHT22;1985;48.592;8.850;2023-09-07T10:43:30;34.90;66.10
3942;DHT22;1985;48.592;8.850;2023-09-07T10:45:57;36.20;60.80
3942;DHT22;1985;48.592;8.850;2023-09-07T10:48:24;37.40;58.40
3942;DHT22;1985;48.592;8.850;2023-09-07T10:50:51;39.00;57.00
3942;DHT22;1985;48.592;8.850;2023-09-07T10:53:27;40.60;52.40
3942;DHT22;1985;48.592;8.850;2023-09-07T10:55:54;39.60;51.20
3942;DHT22;1985;48.592;8.850;2023-09-07T10:58:35;39.10;49.90
3942;DHT22;1985;48.592;8.850;2023-09-07T11:01:02;39.60;49.90
3942;DHT22;1985;48.592;8.850;2023-09-07T11:03:30;39.80;49.60
3942;DHT22;1985;48.592;8.850;2023-09-07T11:06:17;40.80;50.10
3942;DHT22;1985;48.592;8.850;2023-09-07T11:08:46;40.50;46.90
3942;DHT22;1985;48.592;8.850;2023-09-07T11:11:12;40.30;47.30
3942;DHT22;1985;48.592;8.850;2023-09-07T11:13:38;40.40;47.80
3942;DHT22;1985;48.592;8.850;2023-09-07T11:16:07;38.30;49.20
3942;DHT22;1985;48.592;8.850;2023-09-07T11:18:33;37.90;51.60
3942;DHT22;1985;48.592;8.850;2023-09-07T11:21:02;38.90;50.80
3942;DHT22;1985;48.592;8.850;2023-09-07T11:23:33;39.20;49.70
3942;DHT22;1985;48.592;8.850;2023-09-07T11:26:04;37.80;50.00
3942;DHT22;1985;48.592;8.850;2023-09-07T11:28:31;36.00;53.30
3942;DHT22;1985;48.592;8.850;2023-09-07T11:30:58;35.00;54.10
3942;DHT22;1985;48.592;8.850;2023-09-07T11:33:24;34.20;56.90
3942;DHT22;1985;48.592;8.850;2023-09-07T11:35:53;33.50;57.70
3942;DHT22;1985;48.592;8.850;2023-09-07T11:38:22;32.90;58.10
3942;DHT22;1985;48.592;8.850;2023-09-07T11:40:48;32.20;60.80
3942;DHT22;1985;48.592;8.850;2023-09-07T11:43:15;31.30;61.80
3942;DHT22;1985;48.592;8.850;2023-09-07T11:45:41;30.60;64.30
3942;DHT22;1985;48.592;8.850;2023-09-07T11:48:08;30.30;66.80
3942;DHT22;1985;48.592;8.850;2023-09-07T11:50:37;30.50;67.70
3942;DHT22;1985;48.592;8.850;2023-09-07T11:53:04;30.70;68.30
3942;DHT22;1985;48.592;8.850;2023-09-07T11:55:30;30.90;68.30
3942;DHT22;1985;48.592;8.850;2023-09-07T11:57:55;31.10;66.50
3942;DHT22;1985;48.592;8.850;2023-09-07T12:00:22;31.30;66.70
3942;DHT22;1985;48.592;8.850;2023-09-07T12:02:48;31.40;67.80
3942;DHT22;1985;48.592;8.850;2023-09-07T12:05:14;31.50;66.70
3942;DHT22;1985;48.592;8.850;2023-09-07T12:07:41;31.70;67.40
3942;DHT22;1985;48.592;8.850;2023-09-07T12:10:11;31.70;65.20
3942;DHT22;1985;48.592;8.850;2023-09-07T12:12:37;31.70;65.40
3942;DHT22;1985;48.592;8.850;2023-09-07T12:15:03;31.60;65.70
3942;DHT22;1985;48.592;8.850;2023-09-07T12:17:30;31.70;66.30
3942;DHT22;1985;48.592;8.850;2023-09-07T12:19:56;31.60;66.50
3942;DHT22;1985;48.592;8.850;2023-09-07T12:22:22;31.60;66.20
3942;DHT22;1985;48.592;8.850;2023-09-07T12:24:47;31.50;65.80
3942;DHT22;1985;48.592;8.850;2023-09-07T12:27:13;31.60;66.80
3942;DHT22;1985;48.592;8.850;2023-09-07T12:29:39;31.50;66.80
3942;DHT22;1985;48.592;8.850;2023-09-07T12:32:05;31.50;66.90
3942;DHT22;1985;48.592;8.850;2023-09-07T12:34:31;31.40;66.50
3942;DHT22;1985;48.592;8.850;2023-09-07T12:36:56;31.10;67.30
3942;DHT22;1985;48.592;8.850;2023-09-07T12:39:22;31.00;67.80
3942;DHT22;1985;48.592;8.850;2023-09-07T12:41:47;30.90;67.40
3942;DHT22;1985;48.592;8.850;2023-09-07T12:44:13;30.90;69.30
3942;DHT22;1985;48.592;8.850;2023-09-07T12:46:39;31.00;68.50
3942;DHT22;1985;48.592;8.850;2023-09-07T12:49:04;31.10;68.10
3942;DHT22;1985;48.592;8.850;2023-09-07T12:51:30;31.20;67.00
3942;DHT22;1985;48.592;8.850;2023-09-07T12:53:56;31.10;67.60
3942;DHT22;1985;48.592;8.850;2023-09-07T12:56:21;31.10;67.40
3942;DHT22;1985;48.592;8.850;2023-09-07T12:58:47;31.20;67.40
3942;DHT22;1985;48.592;8.850;2023-09-07T13:01:14;31.20;67.40
3942;DHT22;1985;48.592;8.850;2023-09-07T13:03:41;31.10;66.90
3942;DHT22;1985;48.592;8.850;2023-09-07T13:06:07;31.10;67.10
3942;DHT22;1985;48.592;8.850;2023-09-07T13:08:32;31.20;67.70
3942;DHT22;1985;48.592;8.850;2023-09-07T13:10:58;31.20;66.40
3942;DHT22;1985;48.592;8.850;2023-09-07T13:13:24;31.20;67.00
3942;DHT22;1985;48.592;8.850;2023-09-07T13:15:57;31.30;66.30
3942;DHT22;1985;48.592;8.850;2023-09-07T13:18:24;31.20;66.00
3942;DHT22;1985;48.592;8.850;2023-09-07T13:20:52;31.20;66.30
3942;DHT22;1985;48.592;8.850;2023-09-07T13:23:27;31.20;66.70
3942;DHT22;1985;48.592;8.850;2023-09-07T13:25:56;31.20;66.80
3942;DHT22;1985;48.592;8.850;2023-09-07T13:28:22;31.30;66.20
3942;DHT22;1985;48.592;8.850;2023-09-07T13:30:51;31.40;66.20
3942;DHT22;1985;48.592;8.850;2023-09-07T13:33:17;31.40;66.10
3942;DHT22;1985;48.592;8.850;2023-09-07T13:35:43;31.40;66.10
3942;DHT22;1985;48.592;8.850;2023-09-07T13:38:09;31.50;65.30
3942;DHT22;1985;48.592;8.850;2023-09-07T13:40:35;31.50;65.40
3942;DHT22;1985;48.592;8.850;2023-09-07T13:43:01;31.40;65.10
3942;DHT22;1985;48.592;8.850;2023-09-07T13:45:26;31.40;64.90
3942;DHT22;1985;48.592;8.850;2023-09-07T13:47:54;31.50;65.20
3942;DHT22;1985;48.592;8.850;2023-09-07T13:50:20;31.60;65.10
3942;DHT22;1985;48.592;8.850;2023-09-07T13:52:46;31.70;64.50
3942;DHT22;1985;48.592;8.850;2023-09-07T13:55:12;31.70;65.10
3942;DHT22;1985;48.592;8.850;2023-09-07T13:57:37;31.70;64.50
3942;DHT22;1985;48.592;8.850;2023-09-07T14:00:03;31.70;64.60
3942;DHT22;1985;48.592;8.850;2023-09-07T14:02:31;31.70;64.90
3942;DHT22;1985;48.592;8.850;2023-09-07T14:04:58;31.70;64.80
3942;DHT22;1985;48.592;8.850;2023-09-07T14:07:24;31.90;64.50
3942;DHT22;1985;48.592;8.850;2023-09-07T14:09:51;31.90;63.80
3942;DHT22;1985;48.592;8.850;2023-09-07T14:12:17;31.90;62.50
3942;DHT22;1985;48.592;8.850;2023-09-07T14:14:43;31.90;62.40
3942;DHT22;1985;48.592;8.850;2023-09-07T14:17:08;31.90;63.40
3942;DHT22;1985;48.592;8.850;2023-09-07T14:19:34;31.90;62.40
3942;DHT22;1985;48.592;8.850;2023-09-07T14:21:59;31.90;62.90
3942;DHT22;1985;48.592;8.850;2023-09-07T14:24:25;31.80;62.80
3942;DHT22;1985;48.592;8.850;2023-09-07T14:26:51;31.60;62.70
3942;DHT22;1985;48.592;8.850;2023-09-07T14:29:17;31.50;62.50
3942;DHT22;1985;48.592;8.850;2023-09-07T14:31:42;31.30;63.50
3942;DHT22;1985;48.592;8.850;2023-09-07T14:34:10;31.20;62.60
3942;DHT22;1985;48.592;8.850;2023-09-07T14:36:36;31.10;64.00
3942;DHT22;1985;48.592;8.850;2023-09-07T14:39:02;31.00;63.40
3942;DHT22;1985;48.592;8.850;2023-09-07T14:41:28;30.90;62.90
3942;DHT22;1985;48.592;8.850;2023-09-07T14:43:55;30.80;62.50
3942;DHT22;1985;48.592;8.850;2023-09-07T14:46:21;30.90;62.60
3942;DHT22;1985;48.592;8.850;2023-09-07T14:48:48;30.80;62.40
3942;DHT22;1985;48.592;8.850;2023-09-07T14:51:15;30.70;62.20
3942;DHT22;1985;48.592;8.850;2023-09-07T14:53:40;30.60;61.80
3942;DHT22;1985;48.592;8.850;2023-09-07T14:56:06;30.50;62.00
3942;DHT22;1985;48.592;8.850;2023-09-07T14:58:32;30.50;62.10
3942;DHT22;1985;48.592;8.850;2023-09-07T15:00:57;30.40;61.80
3942;DHT22;1985;48.592;8.850;2023-09-07T15:03:25;30.30;62.10
3942;DHT22;1985;48.592;8.850;2023-09-07T15:05:51;30.30;63.10
3942;DHT22;1985;48.592;8.850;2023-09-07T15:08:17;30.20;62.80
3942;DHT22;1985;48.592;8.850;2023-09-07T15:10:42;30.10;63.30
3942;DHT22;1985;48.592;8.850;2023-09-07T15:13:08;30.00;62.20
3942;DHT22;1985;48.592;8.850;2023-09-07T15:15:35;29.90;64.00
3942;DHT22;1985;48.592;8.850;2023-09-07T15:18:06;29.90;63.10
3942;DHT22;1985;48.592;8.850;2023-09-07T15:20:32;29.90;63.50
3942;DHT22;1985;48.592;8.850;2023-09-07T15:22:57;29.80;63.20
3942;DHT22;1985;48.592;8.850;2023-09-07T15:25:23;29.70;63.20
3942;DHT22;1985;48.592;8.850;2023-09-07T15:27:49;29.70;63.20
3942;DHT22;1985;48.592;8.850;2023-09-07T15:30:14;29.70;63.90
3942;DHT22;1985;48.592;8.850;2023-09-07T15:32:40;29.60;63.60
3942;DHT22;1985;48.592;8.850;2023-09-07T15:35:07;29.60;63.90
3942;DHT22;1985;48.592;8.850;2023-09-07T15:37:33;29.50;64.00
3942;DHT22;1985;48.592;8.850;2023-09-07T15:39:59;29.40;63.30
3942;DHT22;1985;48.592;8.850;2023-09-07T15:42:24;29.40;63.50
3942;DHT22;1985;48.592;8.850;2023-09-07T15:44:51;29.40;64.60
3942;DHT22;1985;48.592;8.850;2023-09-07T15:47:17;29.30;64.90
3942;DHT22;1985;48.592;8.850;2023-09-07T15:49:43;29.20;65.40
3942;DHT22;1985;48.592;8.850;2023-09-07T15:52:17;29.10;65.70
3942;DHT22;1985;48.592;8.850;2023-09-07T15:54:42;29.00;66.30
3942;DHT22;1985;48.592;8.850;2023-09-07T15:57:08;29.00;66.40
3942;DHT22;1985;48.592;8.850;2023-09-07T15:59:34;29.00;65.00
3942;DHT22;1985;48.592;8.850;2023-09-07T16:01:59;29.10;65.90
3942;DHT22;1985;48.592;8.850;2023-09-07T16:04:25;29.00;66.00